Time;durP1;ratioP1;P1;durP2;ratioP2;P2;SDS_P1;SDS_P2;PMS_P1;PMS_P2;Temp;Humidity;BMP_temperature;BMP_pressure;BME280_temperature;BME280_humidity;BME280_pressure;Samples;Min_cycle;Max_cycle;Signal;HPM_P1;HPM_P2
2022/06/19 00:00:10;;;;;;;4.63;3.07;;;;;;;;;;5112845;28;20840;-65
2022/06/19 00:02:38;;;;;;;11.03;3.57;;;;;;;;;;5113627;28;20444;-66
2022/06/19 00:05:07;;;;;;;5.00;2.30;;;;;;;;;;5112746;28;20482;-65
2022/06/19 00:07:34;;;;;;;3.97;2.60;;;;;;;;;;5113656;28;20454;-66
2022/06/19 00:10:01;;;;;;;4.40;2.90;;;;;;;;;;5112723;28;20448;-66
2022/06/19 00:12:29;;;;;;;5.83;2.57;;;;;;;;;;5113619;28;20451;-68
2022/06/19 00:14:56;;;;;;;3.17;2.30;;;;;;;;;;5112851;28;20813;-65
2022/06/19 00:17:23;;;;;;;6.40;2.40;;;;;;;;;;5113476;28;20811;-65
2022/06/19 00:19:50;;;;;;;4.03;2.40;;;;;;;;;;5112339;28;20455;-66
2022/06/19 00:22:19;;;;;;;3.63;2.70;;;;;;;;;;5113590;28;20444;-65
2022/06/19 00:24:46;;;;;;;5.33;2.60;;;;;;;;;;5113346;28;20475;-66
2022/06/19 00:27:13;;;;;;;5.77;2.50;;;;;;;;;;5113107;28;20475;-66
2022/06/19 00:29:41;;;;;;;3.73;2.93;;;;;;;;;;5112481;28;20448;-66
2022/06/19 00:32:08;;;;;;;5.53;3.13;;;;;;;;;;5112632;28;20714;-66
2022/06/19 00:34:36;;;;;;;3.87;2.20;;;;;;;;;;5113005;28;20964;-66
2022/06/19 00:37:03;;;;;;;3.73;2.43;;;;;;;;;;5112496;28;20475;-66
2022/06/19 00:39:37;;;;;;;5.97;2.33;;;;;;;;;;5112765;28;20444;-66
2022/06/19 00:42:05;;;;;;;5.90;2.97;;;;;;;;;;5112637;28;20467;-66
2022/06/19 00:44:32;;;;;;;11.13;2.53;;;;;;;;;;5112913;28;20487;-66
2022/06/19 00:47:06;;;;;;;2.63;2.40;;;;;;;;;;5112078;28;20452;-66
2022/06/19 00:49:36;;;;;;;5.20;2.23;;;;;;;;;;5112594;28;20444;-66
2022/06/19 00:52:05;;;;;;;2.70;2.33;;;;;;;;;;5112014;28;20448;-66
2022/06/19 00:54:38;;;;;;;5.90;2.60;;;;;;;;;;5112341;28;20451;-66
2022/06/19 00:57:05;;;;;;;2.30;2.10;;;;;;;;;;5112448;28;20452;-67
2022/06/19 00:59:33;;;;;;;4.33;2.50;;;;;;;;;;5112181;28;20444;-66
2022/06/19 01:02:01;;;;;;;6.17;2.63;;;;;;;;;;5111725;28;20436;-66
2022/06/19 01:04:31;;;;;;;3.40;1.80;;;;;;;;;;5112458;28;20471;-66
2022/06/19 01:06:58;;;;;;;3.47;1.73;;;;;;;;;;5111715;28;20444;-66
2022/06/19 01:09:25;;;;;;;5.00;2.50;;;;;;;;;;5111728;28;20924;-66
2022/06/19 01:11:54;;;;;;;8.13;2.30;;;;;;;;;;5107016;28;20531;-66
2022/06/19 01:14:22;;;;;;;5.47;2.07;;;;;;;;;;5112119;28;20938;-66
2022/06/19 01:16:50;;;;;;;3.50;2.30;;;;;;;;;;5111796;28;20459;-66
2022/06/19 01:19:21;;;;;;;3.67;2.33;;;;;;;;;;5112019;28;20444;-67
2022/06/19 01:21:51;;;;;;;2.80;1.93;;;;;;;;;;5111565;28;20779;-71
2022/06/19 01:24:22;;;;;;;5.63;2.20;;;;;;;;;;5112454;28;20843;-67
2022/06/19 01:26:52;;;;;;;4.33;3.47;;;;;;;;;;5111863;28;20462;-66
2022/06/19 01:29:19;;;;;;;4.03;2.30;;;;;;;;;;5111625;28;20448;-66
2022/06/19 01:31:48;;;;;;;3.50;1.80;;;;;;;;;;5111680;28;20480;-66
2022/06/19 01:34:29;;;;;;;4.90;2.30;;;;;;;;;;5112228;28;20452;-66
2022/06/19 01:37:00;;;;;;;2.40;2.10;;;;;;;;;;5111635;28;20447;-66
2022/06/19 01:39:27;;;;;;;3.37;2.27;;;;;;;;;;5111668;28;20432;-66
2022/06/19 01:41:56;;;;;;;4.67;2.40;;;;;;;;;;5111297;28;20944;-66
2022/06/19 01:44:23;;;;;;;3.30;1.70;;;;;;;;;;5111541;28;21008;-66
2022/06/19 01:46:51;;;;;;;3.47;2.30;;;;;;;;;;5112299;28;20812;-66
2022/06/19 01:49:18;;;;;;;2.70;2.43;;;;;;;;;;5113990;28;20455;-67
2022/06/19 01:51:46;;;;;;;7.63;3.33;;;;;;;;;;5112198;28;20447;-65
2022/06/19 01:54:15;;;;;;;4.70;2.37;;;;;;;;;;5111386;28;21087;-65
2022/06/19 01:56:43;;;;;;;4.40;2.00;;;;;;;;;;5112230;28;20466;-66
2022/06/19 01:59:12;;;;;;;3.83;2.10;;;;;;;;;;5110671;28;20943;-65
2022/06/19 02:01:39;;;;;;;7.27;2.53;;;;;;;;;;5111190;28;20447;-66
2022/06/19 02:04:07;;;;;;;7.67;2.27;;;;;;;;;;5110960;28;20496;-66
2022/06/19 02:06:38;;;;;;;2.70;1.70;;;;;;;;;;5111656;28;20454;-66
2022/06/19 02:09:06;;;;;;;2.77;2.20;;;;;;;;;;5110769;28;20443;-66
2022/06/19 02:11:34;;;;;;;5.40;2.63;;;;;;;;;;5111460;28;20460;-66
2022/06/19 02:14:02;;;;;;;4.17;2.57;;;;;;;;;;5111045;28;20822;-66
2022/06/19 02:16:30;;;;;;;4.87;2.17;;;;;;;;;;5111463;28;20444;-66
2022/06/19 02:18:57;;;;;;;2.63;2.00;;;;;;;;;;5110758;28;20444;-65
2022/06/19 02:21:35;;;;;;;4.80;1.83;;;;;;;;;;5111689;28;20469;-66
2022/06/19 02:24:02;;;;;;;2.03;1.93;;;;;;;;;;5110726;28;20471;-67
2022/06/19 02:26:29;;;;;;;3.50;1.80;;;;;;;;;;5111561;28;20461;-67
2022/06/19 02:28:56;;;;;;;7.30;2.37;;;;;;;;;;5070301;28;20807;-65
2022/06/19 02:31:24;;;;;;;2.90;1.97;;;;;;;;;;5070942;28;20452;-66
2022/06/19 02:33:54;;;;;;;5.20;2.10;;;;;;;;;;5072800;28;20437;-65
2022/06/19 02:36:38;;;;;;;3.63;2.00;;;;;;;;;;5076310;28;20508;-67
2022/06/19 02:39:15;;;;;;;5.73;2.30;;;;;;;;;;5074418;28;20453;-66
2022/06/19 02:41:45;;;;;;;2.50;2.10;;;;;;;;;;5075380;28;20502;-66
2022/06/19 02:44:12;;;;;;;4.27;2.33;;;;;;;;;;5076482;28;20473;-68
2022/06/19 02:46:39;;;;;;;3.93;2.23;;;;;;;;;;5076853;28;20449;-67
2022/06/19 02:49:08;;;;;;;4.37;1.97;;;;;;;;;;5074235;28;20456;-68
2022/06/19 02:51:35;;;;;;;3.00;1.90;;;;;;;;;;5074690;28;20445;-67
2022/06/19 02:54:02;;;;;;;4.20;2.00;;;;;;;;;;5073903;28;20452;-67
2022/06/19 02:56:29;;;;;;;4.03;2.07;;;;;;;;;;5074542;28;20457;-65
2022/06/19 02:58:56;;;;;;;3.50;1.90;;;;;;;;;;5073801;28;20785;-66
2022/06/19 03:01:23;;;;;;;4.03;2.20;;;;;;;;;;5074282;28;20456;-65
2022/06/19 03:03:51;;;;;;;5.07;2.07;;;;;;;;;;5073747;28;20811;-66
2022/06/19 03:06:19;;;;;;;5.23;2.30;;;;;;;;;;5074681;28;20445;-66
2022/06/19 03:08:46;;;;;;;4.40;2.40;;;;;;;;;;5074198;28;20452;-66
2022/06/19 03:11:13;;;;;;;10.10;2.53;;;;;;;;;;5074457;28;20458;-66
2022/06/19 03:13:41;;;;;;;2.40;1.90;;;;;;;;;;5074126;28;21010;-66
2022/06/19 03:16:09;;;;;;;4.67;2.00;;;;;;;;;;5073607;28;20735;-66
2022/06/19 03:18:36;;;;;;;5.90;1.90;;;;;;;;;;5074168;28;20480;-66
2022/06/19 03:21:04;;;;;;;4.07;2.37;;;;;;;;;;5073628;28;20762;-66
2022/06/19 03:23:33;;;;;;;2.70;2.00;;;;;;;;;;5074488;28;20550;-65
2022/06/19 03:26:00;;;;;;;3.40;2.53;;;;;;;;;;5060167;28;20493;-66
2022/06/19 03:28:27;;;;;;;3.67;2.00;;;;;;;;;;5105110;28;20479;-68
2022/06/19 03:30:55;;;;;;;4.70;2.43;;;;;;;;;;5112397;28;20444;-66
2022/06/19 03:33:22;;;;;;;2.40;1.77;;;;;;;;;;5112969;28;20485;-66
2022/06/19 03:35:49;;;;;;;4.50;2.00;;;;;;;;;;5112536;28;20799;-66
2022/06/19 03:38:17;;;;;;;4.03;2.33;;;;;;;;;;5113071;28;20446;-66
2022/06/19 03:40:46;;;;;;;3.20;2.23;;;;;;;;;;5113398;28;20483;-66
2022/06/19 03:43:13;;;;;;;3.10;1.87;;;;;;;;;;5112939;28;20458;-66
2022/06/19 03:45:40;;;;;;;4.47;2.30;;;;;;;;;;5112161;28;20484;-65
2022/06/19 03:48:08;;;;;;;8.77;2.40;;;;;;;;;;5112588;28;20450;-66
2022/06/19 03:50:35;;;;;;;3.90;2.30;;;;;;;;;;5112626;28;20444;-65
2022/06/19 03:53:02;;;;;;;3.17;2.20;;;;;;;;;;5112001;28;20448;-66
2022/06/19 03:55:29;;;;;;;3.23;2.10;;;;;;;;;;5112868;28;20452;-66
2022/06/19 03:57:57;;;;;;;2.57;2.17;;;;;;;;;;5112238;28;20535;-66
2022/06/19 04:00:25;;;;;;;4.53;2.40;;;;;;;;;;5112045;28;20443;-66
2022/06/19 04:02:52;;;;;;;3.90;1.93;;;;;;;;;;5111911;28;20476;-66
2022/06/19 04:05:19;;;;;;;4.47;2.20;;;;;;;;;;5112774;28;20479;-67
2022/06/19 04:07:47;;;;;;;3.73;1.97;;;;;;;;;;5112772;28;20448;-66
2022/06/19 04:10:15;;;;;;;3.03;2.10;;;;;;;;;;5112492;28;20448;-66
2022/06/19 04:12:42;;;;;;;6.40;2.40;;;;;;;;;;5112270;28;20467;-66
2022/06/19 04:15:12;;;;;;;2.50;1.60;;;;;;;;;;5112039;28;20448;-66
2022/06/19 04:17:40;;;;;;;2.50;2.10;;;;;;;;;;5112177;28;20907;-65
2022/06/19 04:20:08;;;;;;;4.50;2.23;;;;;;;;;;5111580;28;20448;-66
2022/06/19 04:22:36;;;;;;;4.87;2.07;;;;;;;;;;5112175;28;20444;-66
2022/06/19 04:25:03;;;;;;;4.70;2.23;;;;;;;;;;5111499;28;20482;-66
2022/06/19 04:27:32;;;;;;;6.67;2.10;;;;;;;;;;5073501;28;1105626;-66
2022/06/19 04:29:59;;;;;;;4.67;1.60;;;;;;;;;;5112487;28;20194;-66
2022/06/19 04:32:29;;;;;;;4.97;2.10;;;;;;;;;;5113179;28;20452;-66
2022/06/19 04:34:56;;;;;;;3.90;2.33;;;;;;;;;;5113109;28;20460;-66
2022/06/19 04:37:23;;;;;;;3.50;2.37;;;;;;;;;;5099405;28;20933;-67
2022/06/19 04:39:50;;;;;;;3.30;2.20;;;;;;;;;;5111998;28;20966;-67
2022/06/19 04:42:18;;;;;;;2.33;1.30;;;;;;;;;;5099428;28;20436;-66
2022/06/19 04:44:45;;;;;;;5.80;2.40;;;;;;;;;;5113175;28;20487;-67
2022/06/19 04:47:12;;;;;;;3.87;1.90;;;;;;;;;;5112409;28;20450;-67
2022/06/19 04:49:40;;;;;;;3.53;2.07;;;;;;;;;;5112190;28;20490;-67
2022/06/19 04:52:08;;;;;;;5.23;2.00;;;;;;;;;;5112496;28;20440;-66
2022/06/19 04:54:35;;;;;;;3.00;1.93;;;;;;;;;;5112556;28;20456;-67
2022/06/19 04:57:02;;;;;;;2.80;1.80;;;;;;;;;;5111352;28;20927;-67
2022/06/19 04:59:29;;;;;;;4.90;2.07;;;;;;;;;;5112530;28;20442;-67
2022/06/19 05:01:56;;;;;;;2.77;2.03;;;;;;;;;;5111949;28;20455;-67
2022/06/19 05:04:23;;;;;;;4.30;2.13;;;;;;;;;;5112224;28;20535;-67
2022/06/19 05:06:52;;;;;;;5.60;2.27;;;;;;;;;;5112156;28;20487;-67
2022/06/19 05:09:19;;;;;;;3.70;1.90;;;;;;;;;;5112046;28;20455;-67
2022/06/19 05:11:46;;;;;;;7.00;2.13;;;;;;;;;;5112669;28;20454;-66
2022/06/19 05:14:14;;;;;;;3.67;1.90;;;;;;;;;;5112538;28;20485;-66
2022/06/19 05:16:41;;;;;;;5.57;2.33;;;;;;;;;;5112103;28;20455;-66
2022/06/19 05:19:08;;;;;;;10.90;2.57;;;;;;;;;;5111362;28;20467;-66
2022/06/19 05:21:35;;;;;;;3.70;2.10;;;;;;;;;;5112523;28;20440;-66
2022/06/19 05:24:04;;;;;;;6.70;2.40;;;;;;;;;;5111763;28;20444;-66
2022/06/19 05:26:32;;;;;;;3.30;1.87;;;;;;;;;;5112266;28;20495;-67
2022/06/19 05:29:00;;;;;;;2.27;2.07;;;;;;;;;;5111297;28;20462;-66
2022/06/19 05:31:27;;;;;;;5.67;2.33;;;;;;;;;;5112037;28;20458;-66
2022/06/19 05:33:55;;;;;;;3.60;2.10;;;;;;;;;;5097963;28;20440;-67
2022/06/19 05:36:22;;;;;;;10.63;2.37;;;;;;;;;;5112227;28;20456;-66
2022/06/19 05:38:50;;;;;;;4.30;1.90;;;;;;;;;;5110874;28;20446;-68
2022/06/19 05:41:19;;;;;;;5.70;2.37;;;;;;;;;;5112143;28;20443;-66
2022/06/19 05:43:49;;;;;;;4.40;2.50;;;;;;;;;;5112059;28;20543;-66
2022/06/19 05:46:17;;;;;;;4.73;2.80;;;;;;;;;;5111740;28;20480;-66
2022/06/19 05:48:44;;;;;;;7.20;2.60;;;;;;;;;;5111457;28;20953;-66
2022/06/19 05:51:12;;;;;;;4.10;2.40;;;;;;;;;;5111149;28;20448;-66
2022/06/19 05:53:41;;;;;;;5.37;2.63;;;;;;;;;;5111836;28;20446;-66
2022/06/19 05:56:08;;;;;;;4.10;1.70;;;;;;;;;;5110875;28;20940;-66
2022/06/19 05:58:37;;;;;;;3.97;2.37;;;;;;;;;;5111061;28;20931;-66
2022/06/19 06:01:05;;;;;;;3.90;2.20;;;;;;;;;;5110996;28;20449;-66
2022/06/19 06:03:32;;;;;;;3.07;2.60;;;;;;;;;;5111693;28;20443;-66
2022/06/19 06:06:00;;;;;;;2.30;2.10;;;;;;;;;;5110896;28;20483;-66
2022/06/19 06:08:27;;;;;;;1.87;1.60;;;;;;;;;;5110933;28;20448;-66
2022/06/19 06:10:54;;;;;;;4.57;1.87;;;;;;;;;;5110666;28;20526;-66
2022/06/19 06:13:21;;;;;;;2.87;2.53;;;;;;;;;;5111640;28;20447;-66
2022/06/19 06:15:50;;;;;;;8.47;3.10;;;;;;;;;;5110666;28;20487;-70
2022/06/19 06:18:18;;;;;;;4.60;2.30;;;;;;;;;;5111231;28;20487;-66
2022/06/19 06:20:45;;;;;;;5.83;2.20;;;;;;;;;;5111574;28;20444;-66
2022/06/19 06:23:12;;;;;;;7.47;2.63;;;;;;;;;;5111072;28;20444;-66
2022/06/19 06:25:42;;;;;;;2.73;2.10;;;;;;;;;;5111267;28;20501;-66
2022/06/19 06:28:09;;;;;;;2.87;1.83;;;;;;;;;;5110544;28;20479;-66
2022/06/19 06:30:36;;;;;;;6.07;2.80;;;;;;;;;;5111000;28;20458;-66
2022/06/19 06:33:05;;;;;;;4.27;2.03;;;;;;;;;;5110768;28;20479;-66
2022/06/19 06:35:33;;;;;;;8.50;2.90;;;;;;;;;;5111331;28;20448;-66
2022/06/19 06:38:00;;;;;;;7.93;2.90;;;;;;;;;;5111206;28;20542;-68
2022/06/19 06:40:27;;;;;;;3.07;2.17;;;;;;;;;;5112209;28;20446;-68
2022/06/19 06:42:55;;;;;;;5.33;2.43;;;;;;;;;;5111429;28;20527;-66
2022/06/19 06:45:22;;;;;;;3.70;2.70;;;;;;;;;;5114473;28;21041;-66
2022/06/19 06:47:49;;;;;;;4.97;2.33;;;;;;;;;;5111777;28;20443;-67
2022/06/19 06:50:18;;;;;;;2.90;2.17;;;;;;;;;;5097947;28;20444;-66
2022/06/19 06:52:45;;;;;;;3.30;2.30;;;;;;;;;;5111654;28;20542;-66
2022/06/19 06:55:12;;;;;;;3.77;2.73;;;;;;;;;;5110494;28;20448;-65
2022/06/19 06:57:40;;;;;;;3.23;2.93;;;;;;;;;;5110719;28;20443;-66
2022/06/19 07:00:08;;;;;;;3.40;2.10;;;;;;;;;;5109885;28;20452;-66
2022/06/19 07:02:35;;;;;;;6.83;2.10;;;;;;;;;;5109426;28;20455;-66
2022/06/19 07:05:02;;;;;;;3.60;2.30;;;;;;;;;;5098625;28;20436;-66
2022/06/19 07:07:31;;;;;;;3.57;2.20;;;;;;;;;;5111030;28;20452;-66
2022/06/19 07:09:58;;;;;;;3.50;2.30;;;;;;;;;;5110094;28;20458;-66
2022/06/19 07:12:25;;;;;;;8.30;2.73;;;;;;;;;;5110727;28;20462;-67
2022/06/19 07:14:52;;;;;;;2.77;2.50;;;;;;;;;;5110504;28;20446;-67
2022/06/19 07:17:19;;;;;;;4.53;2.70;;;;;;;;;;5110901;28;21115;-67
2022/06/19 07:19:46;;;;;;;5.50;2.90;;;;;;;;;;5112291;28;20462;-67
2022/06/19 07:22:14;;;;;;;4.70;2.50;;;;;;;;;;5114713;28;20443;-67
2022/06/19 07:24:43;;;;;;;2.77;2.50;;;;;;;;;;5114490;28;20869;-66
2022/06/19 07:27:10;;;;;;;5.33;2.70;;;;;;;;;;5113719;28;20496;-67
2022/06/19 07:29:40;;;;;;;4.00;2.10;;;;;;;;;;5114107;28;20440;-67
2022/06/19 07:32:08;;;;;;;8.40;2.77;;;;;;;;;;5113382;28;20456;-66
2022/06/19 07:34:35;;;;;;;3.37;2.70;;;;;;;;;;5114402;28;20444;-66
2022/06/19 07:37:04;;;;;;;5.43;2.90;;;;;;;;;;5113858;28;20534;-66
2022/06/19 07:39:31;;;;;;;4.63;3.30;;;;;;;;;;5113638;28;20484;-66
2022/06/19 07:42:00;;;;;;;5.47;3.17;;;;;;;;;;5113251;28;20462;-66
2022/06/19 07:44:27;;;;;;;4.27;2.70;;;;;;;;;;5113945;28;20919;-66
2022/06/19 07:52:24;;;;;;;4.30;3.20;;;;;;;;;;5114151;28;20430;-66
2022/06/19 07:54:51;;;;;;;3.20;2.87;;;;;;;;;;5113309;28;20805;-66
2022/06/19 07:57:19;;;;;;;3.30;2.53;;;;;;;;;;5114032;28;20534;-67
2022/06/19 07:59:47;;;;;;;5.57;2.70;;;;;;;;;;5113745;28;20448;-66
2022/06/19 08:02:14;;;;;;;5.87;3.10;;;;;;;;;;5113897;28;20534;-66
2022/06/19 08:04:41;;;;;;;4.20;2.90;;;;;;;;;;5113678;28;20457;-66
2022/06/19 08:07:08;;;;;;;3.83;3.17;;;;;;;;;;5112947;28;21202;-67
2022/06/19 08:09:35;;;;;;;5.10;3.70;;;;;;;;;;5113144;28;20447;-66
2022/06/19 08:12:02;;;;;;;7.20;3.63;;;;;;;;;;5113296;28;20486;-66
2022/06/19 08:14:31;;;;;;;5.93;4.00;;;;;;;;;;5113602;28;20453;-67
2022/06/19 08:16:58;;;;;;;4.10;3.70;;;;;;;;;;5113050;28;20452;-66
2022/06/19 08:19:25;;;;;;;5.40;4.90;;;;;;;;;;5113079;28;20451;-67
2022/06/19 08:21:52;;;;;;;6.40;4.50;;;;;;;;;;5113091;28;20872;-67
2022/06/19 08:24:20;;;;;;;4.93;4.40;;;;;;;;;;5113581;28;20496;-67
2022/06/19 08:26:47;;;;;;;5.33;4.43;;;;;;;;;;5112877;28;20491;-67
2022/06/19 08:29:14;;;;;;;6.53;5.20;;;;;;;;;;5113248;28;20447;-67
2022/06/19 08:31:42;;;;;;;5.80;5.20;;;;;;;;;;5111940;28;20443;-67
2022/06/19 08:34:09;;;;;;;5.23;4.40;;;;;;;;;;5112476;28;20447;-67
2022/06/19 08:36:37;;;;;;;6.57;5.20;;;;;;;;;;5113080;28;20447;-67
2022/06/19 08:39:06;;;;;;;6.20;5.60;;;;;;;;;;5112366;28;20444;-67
2022/06/19 08:41:39;;;;;;;5.63;4.90;;;;;;;;;;5112818;28;20443;-67
2022/06/19 08:44:13;;;;;;;5.77;5.13;;;;;;;;;;5112636;28;20516;-67
2022/06/19 08:46:48;;;;;;;5.53;5.03;;;;;;;;;;5112729;28;20475;-67
2022/06/19 08:49:22;;;;;;;6.50;5.63;;;;;;;;;;5112886;28;20193;-67
2022/06/19 08:51:55;;;;;;;5.50;5.00;;;;;;;;;;5112334;28;20518;-68
2022/06/19 08:54:26;;;;;;;5.47;4.97;;;;;;;;;;5112612;28;20194;-67
2022/06/19 08:56:59;;;;;;;5.83;5.33;;;;;;;;;;5112605;28;20466;-67
2022/06/19 08:59:32;;;;;;;7.70;5.30;;;;;;;;;;5112047;28;20201;-67
2022/06/19 09:02:05;;;;;;;5.60;5.10;;;;;;;;;;5112002;28;20208;-66
2022/06/19 09:07:29;;;;;;;6.97;5.60;;;;;;;;;;5112566;28;20679;-67
2022/06/19 09:10:07;;;;;;;5.00;4.60;;;;;;;;;;5111930;28;20279;-67
2022/06/19 09:12:44;;;;;;;5.60;5.10;;;;;;;;;;5112374;28;20611;-65
2022/06/19 09:15:13;;;;;;;7.40;5.10;;;;;;;;;;5111729;28;20204;-66
2022/06/19 09:17:47;;;;;;;5.83;5.40;;;;;;;;;;5111908;28;20678;-66
2022/06/19 09:20:23;;;;;;;4.90;4.50;;;;;;;;;;5112733;28;20208;-66
2022/06/19 09:23:04;;;;;;;4.57;4.17;;;;;;;;;;5111524;28;20197;-67
2022/06/19 09:25:41;;;;;;;4.80;4.27;;;;;;;;;;5112182;28;20208;-65
2022/06/19 09:28:14;;;;;;;7.10;4.87;;;;;;;;;;5110996;28;20470;-66
2022/06/19 09:30:44;;;;;;;4.97;4.53;;;;;;;;;;5112192;28;20194;-66
2022/06/19 09:33:15;;;;;;;4.78;4.38;;;;;;;;;;5111336;28;20219;-67
2022/06/19 09:35:44;;;;;;;5.30;4.20;;;;;;;;;;5111905;28;20239;-66
2022/06/19 09:38:13;;;;;;;4.70;4.30;;;;;;;;;;5110989;28;20197;-67
2022/06/19 09:40:41;;;;;;;7.40;5.13;;;;;;;;;;5112019;28;20209;-66
2022/06/19 09:43:10;;;;;;;4.13;3.83;;;;;;;;;;5110809;28;20233;-67
2022/06/19 09:45:41;;;;;;;4.50;4.10;;;;;;;;;;5112019;28;20203;-66
2022/06/19 09:48:12;;;;;;;7.63;3.25;;;;;;;;;;5110938;28;20512;-67
2022/06/19 09:50:43;;;;;;;5.30;3.67;;;;;;;;;;5111933;28;20565;-67
2022/06/19 09:53:12;;;;;;;4.23;3.30;;;;;;;;;;5111016;28;20204;-66
2022/06/19 09:55:41;;;;;;;4.00;3.63;;;;;;;;;;5111712;28;20372;-67
2022/06/19 09:58:14;;;;;;;3.83;3.53;;;25.70;1.00;;;;;;5110881;28;20501;-67
2022/06/19 10:00:42;;;;;;;4.72;3.25;;;33.60;1.00;;;;;;5111592;28;20652;-66
2022/06/19 10:03:18;;;;;;;5.25;4.57;;;33.30;1.00;;;;;;5111100;28;20572;-66
2022/06/19 10:05:51;;;;;;;5.30;4.28;;;33.40;1.00;;;;;;5111563;28;20185;-66
2022/06/19 10:08:24;;;;;;;6.33;4.00;;;33.50;1.00;;;;;;5111456;28;20213;-67
2022/06/19 10:10:55;;;;;;;4.20;3.80;;;33.50;1.00;;;;;;5111156;28;20193;-66
2022/06/19 10:13:29;;;;;;;5.43;4.03;;;33.50;1.00;;;;;;5101798;28;20719;-66
2022/06/19 10:15:59;;;;;;;6.10;4.20;;;33.50;1.00;;;;;;5111107;28;20287;-66
2022/06/19 10:18:32;;;;;;;13.63;4.72;;;33.50;1.00;;;;;;5111178;28;20238;-67
2022/06/19 10:21:05;;;;;;;5.97;4.60;;;33.50;1.00;;;;;;5111074;28;20200;-66
2022/06/19 10:23:45;;;;;;;3.60;3.25;;;33.70;1.00;;;;;;5111244;28;20255;-67
2022/06/19 10:26:28;;;;;;;6.13;4.90;;;33.70;1.00;;;;;;5110597;28;20197;-66
2022/06/19 10:29:31;;;;;;;5.70;4.40;;;33.80;1.00;;;;;;5111007;28;20635;-66
2022/06/19 10:32:19;;;;;;;6.68;4.32;;;33.60;1.00;;;;;;5107478;28;20223;-67
2022/06/19 10:34:53;;;;;;;5.05;4.35;;;33.80;1.00;;;;;;5111653;28;20211;-67
2022/06/19 10:37:31;;;;;;;4.65;4.05;;;33.80;1.00;;;;;;5111272;28;20535;-67
2022/06/19 10:40:25;;;;;;;4.70;4.00;;;33.80;1.00;;;;;;5110307;28;20723;-67
2022/06/19 10:43:11;;;;;;;9.35;4.47;;;34.10;1.00;;;;;;5110848;28;20194;-67
2022/06/19 10:45:43;;;;;;;7.32;4.35;;;34.10;1.00;;;;;;5111180;28;20251;-67
2022/06/19 10:48:28;;;;;;;4.53;4.13;;;34.00;1.00;;;;;;5110565;28;20209;-66
2022/06/19 10:51:13;;;;;;;6.85;4.32;;;34.20;1.00;;;;;;5111445;28;20193;-66
2022/06/19 10:54:07;;;;;;;7.72;4.63;;;34.10;1.00;;;;;;5111791;28;20205;-66
2022/06/19 10:56:42;;;;;;;6.63;3.80;;;34.10;1.00;;;;;;5115349;28;20197;-66
2022/06/19 10:59:09;;;;;;;7.65;4.22;;;34.20;1.00;;;;;;5114336;28;20197;-67
2022/06/19 11:04:29;;;;;;;4.13;3.83;;;34.30;1.00;;;;;;5114962;28;20204;-67
2022/06/19 11:07:05;;;;;;;4.68;4.25;;;34.30;1.00;;;;;;5114517;28;20690;-67
2022/06/19 11:09:40;;;;;;;5.03;3.63;;;34.20;1.00;;;;;;5114537;28;20243;-67
2022/06/19 11:12:16;;;;;;;3.30;3.00;;;34.40;1.00;;;;;;5114410;28;20288;-66
2022/06/19 11:14:48;;;;;;;4.95;4.10;;;34.40;1.00;;;;;;5102479;28;20624;-67
2022/06/19 11:17:17;;;;;;;6.32;3.53;;;34.40;1.00;;;;;;5114807;28;20198;-67
2022/06/19 11:19:46;;;;;;;6.65;3.95;;;34.60;1.00;;;;;;5114662;28;20201;-67
2022/06/19 11:22:34;;;;;;;8.18;3.17;;;34.40;1.00;;;;;;5114968;28;20213;-67
2022/06/19 11:25:34;;;;;;;4.70;4.07;;;34.50;1.00;;;;;;5114021;28;20427;-67
2022/06/19 11:28:04;;;;;;;7.05;4.28;;;34.50;1.00;;;;;;5113558;28;20244;-67
2022/06/19 11:30:35;;;;;;;5.00;4.50;;;34.60;1.00;;;;;;5114671;28;20211;-67
2022/06/19 11:33:05;;;;;;;6.18;3.88;;;34.70;1.00;;;;;;5114040;28;20204;-68
2022/06/19 11:35:41;;;;;;;4.05;3.70;;;34.50;1.00;;;;;;5114618;28;20272;-66
2022/06/19 11:38:08;;;;;;;4.60;3.97;;;34.70;1.00;;;;;;5113786;28;20603;-66
2022/06/19 11:40:42;;;;;;;4.38;3.97;;;35.00;1.00;;;;;;5114658;28;20241;-66
2022/06/19 11:43:27;;;;;;;7.53;3.80;;;35.10;1.00;;;;;;5113719;28;20201;-66
2022/06/19 11:46:01;;;;;;;5.53;4.15;;;35.00;1.00;;;;;;5113419;28;20197;-67
2022/06/19 11:48:28;;;;;;;4.00;3.65;;;35.20;1.00;;;;;;5113538;28;20287;-67
2022/06/19 11:50:56;;;;;;;4.45;3.80;;;35.10;1.00;;;;;;5113371;28;20201;-67
2022/06/19 11:53:25;;;;;;;4.55;4.13;;;35.20;1.00;;;;;;5114140;28;20566;-67
2022/06/19 11:56:15;;;;;;;6.22;3.67;;;35.00;1.00;;;;;;5113462;28;20208;-67
2022/06/19 11:58:44;;;;;;;4.13;3.78;;;34.90;1.00;;;;;;5113537;28;20238;-68
2022/06/19 12:01:15;;;;;;;4.35;3.95;;;35.10;1.00;;;;;;5113344;28;20198;-67
2022/06/19 12:03:48;;;;;;;4.10;3.70;;;35.20;1.00;;;;;;5113873;28;20567;-67
2022/06/19 12:06:17;;;;;;;10.65;5.03;;;35.20;1.00;;;;;;5113567;28;20200;-67
2022/06/19 12:08:57;;;;;;;5.30;3.97;;;35.30;1.00;;;;;;5113227;28;20320;-66
2022/06/19 12:11:38;;;;;;;3.72;3.40;;;35.50;1.00;;;;;;5113884;28;20209;-66
2022/06/19 12:14:07;;;;;;;5.07;4.25;;;35.40;1.00;;;;;;5113182;28;20197;-66
2022/06/19 12:16:34;;;;;;;4.18;3.78;;;35.50;1.00;;;;;;5113504;28;20271;-66
2022/06/19 12:19:21;;;;;;;4.88;3.97;;;35.70;1.00;;;;;;5112580;28;20204;-68
2022/06/19 12:21:52;;;;;;;4.65;3.63;;;35.80;1.00;;;;;;5113113;28;20645;-72
2022/06/19 12:24:25;;;;;;;4.53;4.13;;;35.70;1.00;;;;;;5113659;28;20205;-66
2022/06/19 12:26:56;;;;;;;8.27;4.13;;;35.70;1.00;;;;;;5112790;28;20221;-68
2022/06/19 12:29:29;;;;;;;4.43;3.90;;;35.40;1.00;;;;;;5113075;28;20229;-67
2022/06/19 12:32:02;;;;;;;5.05;3.88;;;35.40;1.00;;;;;;5112360;28;20203;-67
2022/06/19 12:34:35;;;;;;;6.80;4.53;;;35.40;1.00;;;;;;5113415;28;20204;-67
2022/06/19 12:37:02;;;;;;;3.72;3.42;;;35.60;1.00;;;;;;5112739;28;20627;-67
2022/06/19 12:39:32;;;;;;;4.18;3.53;;;35.60;1.00;;;;;;5112913;28;20203;-67
2022/06/19 12:42:07;;;;;;;5.68;3.53;;;35.50;1.00;;;;;;5112450;28;20609;-68
2022/06/19 12:44:58;;;;;;;16.30;3.97;;;35.60;1.00;;;;;;5113349;28;20193;-67
2022/06/19 12:47:33;;;;;;;4.10;3.70;;;35.60;1.00;;;;;;5112545;28;20220;-67
2022/06/19 12:50:18;;;;;;;3.20;2.95;;;35.40;1.00;;;;;;5112164;28;20299;-67
2022/06/19 12:52:55;;;;;;;4.10;3.80;;;35.50;1.00;;;;;;5113154;28;20205;-68
2022/06/19 12:55:42;;;;;;;5.03;4.47;;;35.60;1.00;;;;;;5113040;28;20201;-67
2022/06/19 12:58:46;;;;;;;6.13;3.58;;;35.40;1.00;;;;;;5111817;28;20213;-66
2022/06/19 13:01:19;;;;;;;5.32;3.63;;;35.50;1.00;;;;;;5105262;28;20197;-67
2022/06/19 13:03:58;;;;;;;4.10;3.70;;;35.40;1.00;;;;;;5112546;28;20207;-68
2022/06/19 13:06:45;;;;;;;5.10;3.75;;;35.50;1.00;;;;;;5112298;28;20189;-67
2022/06/19 13:09:25;;;;;;;5.90;4.57;;;35.80;1.00;;;;;;5111323;28;20217;-67
2022/06/19 13:12:02;;;;;;;4.40;4.00;;;35.70;1.00;;;;;;5112174;28;20200;-68
2022/06/19 13:14:58;;;;;;;4.00;3.70;;;35.80;1.00;;;;;;5112520;28;20193;-66
2022/06/19 13:17:29;;;;;;;4.20;3.80;;;35.90;1.00;;;;;;5111074;28;20202;-66
2022/06/19 13:20:09;;;;;;;4.93;3.75;;;36.10;1.00;;;;;;5111958;28;20232;-66
2022/06/19 13:22:45;;;;;;;6.00;4.75;;;36.30;1.00;;;;;;5112391;28;20201;-67
2022/06/19 13:25:20;;;;;;;3.58;3.28;;;36.60;1.00;;;;;;5111715;28;20613;-67
2022/06/19 13:28:09;;;;;;;4.55;3.63;;;36.60;1.00;;;;;;5111710;28;20604;-67
2022/06/19 13:30:48;;;;;;;4.60;4.20;;;36.50;1.00;;;;;;5111925;28;20663;-66
2022/06/19 13:33:26;;;;;;;4.97;4.47;;;36.60;1.00;;;;;;5112142;28;20198;-67
2022/06/19 13:35:59;;;;;;;4.97;4.57;;;36.50;1.00;;;;;;5111760;28;20193;-68
2022/06/19 13:38:39;;;;;;;4.47;4.07;;;36.60;1.00;;;;;;5111236;28;20211;-66
2022/06/19 13:41:17;;;;;;;5.40;4.40;;;37.10;1.00;;;;;;5111688;28;20193;-66
2022/06/19 13:44:04;;;;;;;6.32;4.18;;;37.10;1.00;;;;;;5112132;28;20197;-66
2022/06/19 13:46:43;;;;;;;4.30;3.90;;;37.00;1.00;;;;;;5112057;28;20205;-67
2022/06/19 13:49:17;;;;;;;5.18;4.15;;;36.70;1.00;;;;;;5110955;28;20214;-67
2022/06/19 13:52:17;;;;;;;5.35;3.72;;;37.10;1.00;;;;;;5111912;28;20200;-68
2022/06/19 13:54:47;;;;;;;8.23;4.07;;;;;;;;;;5111783;28;20201;-67
2022/06/19 13:57:21;;;;;;;4.30;3.90;;;37.70;1.00;;;;;;5112223;28;20202;-67
2022/06/19 13:59:59;;;;;;;3.92;3.63;;;38.40;1.00;;;;;;5111584;28;20195;-72
2022/06/19 14:02:48;;;;;;;5.38;3.88;;;38.70;1.00;;;;;;5111695;28;20209;-67
2022/06/19 14:05:23;;;;;;;4.35;4.00;;;38.90;1.00;;;;;;5111915;28;20197;-67
2022/06/19 14:08:10;;;;;;;6.35;4.80;;;38.90;1.00;;;;;;5110414;28;20217;-67
2022/06/19 14:10:42;;;;;;;6.25;4.60;;;;;;;;;;5111530;28;20197;-67
2022/06/19 14:13:12;;;;;;;4.60;3.65;;;;;;;;;;5111050;28;20541;-66
2022/06/19 14:15:50;;;;;;;5.75;4.50;;;39.00;1.00;;;;;;5111371;28;20212;-67
2022/06/19 14:18:28;;;;;;;4.75;3.65;;;39.70;1.00;;;;;;5111390;28;20201;-67
2022/06/19 14:21:00;;;;;;;6.15;4.07;;;;;;;;;;5110597;28;20203;-67
2022/06/19 14:23:33;;;;;;;3.80;3.50;;;;;;;;;;5111349;28;20200;-67
2022/06/19 14:26:04;;;;;;;4.57;4.10;;;;;;;;;;5110889;28;20201;-67
2022/06/19 14:28:38;;;;;;;6.40;4.25;;;;;;;;;;5111995;28;20269;-68
2022/06/19 14:31:08;;;;;;;5.10;3.65;;;;;;;;;;5115004;28;20203;-66
2022/06/19 14:33:45;;;;;;;4.65;4.00;;;39.20;1.00;;;;;;5115228;28;20292;-67
2022/06/19 14:36:14;;;;;;;3.92;3.63;;;;;;;;;;5115076;28;20201;-67
2022/06/19 14:38:41;;;;;;;4.03;3.63;;;;;;;;;;5114807;28;20307;-66
2022/06/19 14:41:13;;;;;;;5.63;5.13;;;;;;;;;;5114761;28;20379;-67
2022/06/19 14:43:58;;;;;;;5.07;3.20;;;;;;;;;;5115471;28;20197;-66